Metlakatla, Alaska
Current Conditions -  °F | °C
As of 12:16 AM on Monday 24 Nov 2014 (Local Time) from PAMM Reporting Station
Overcast Overcast  
Wind Chill:   Ceiling: 3500
Heat Index:   Visibility: 10mi
Dew Point:   Wind: 14mph
Humidity: 76%   Direction: 160°SSE
Pressure: 29.83"   Gusts: 29mph
Location:  55.11°N, 131.58°W
Report Text: PAMM 240916Z AUTO 16012G25KT 110V190 10SM SCT025 OVC035 07/03 A2983 RMK AO1 P0004
Loading
Personal Weather Stations






























Interactive Weather Map New forecast layout! Learn more

10-Day Weather Forecast

Advertisements
Track Severe Weather on mobile